Metar Cercanos

 

LEPA - Palma De Mallorc, Spain
Distance from station: ONO 38km
Actualización: 19/09/2018 17:00
Parcialmente nuboso
Parcialmente nuboso
 Viento del S
Viento: S 6 km/h
Temperatura: 28°C
Indice Calor: 29°C
Rocío: 20°C
Humedad: 62%
Barómetro: 1019 hPa
Clouds: Parcialmente nuboso
Visibility: 10 km
Cloud details: Few Clouds 610 m
Parcialmente nuboso 975 m
2018/09/19 15:00 LEPA 191500Z 19003KT 120V290 9999 FEW020 SCT032 28/20 Q1019 NOSIG
LEMH - Mahon/Menorca Is, Spain
Distance from station: ENE 105km
Actualización: 19/09/2018 17:00
Few Clouds
Few Clouds
 Viento del NNO
Viento: NNO 7 km/h
Barómetro: 1019 hPa
Clouds: Few Clouds
Visibility: 10 km
Cloud details: Few Clouds 610 m
2018/09/19 15:00 LEMH 191500Z 34004KT 9999 FEW020TCU ///// Q1019
 
LEIB - Ibiza/Es Codola, Spain
Distance from station: OSO 165km
Actualización: 19/09/2018 17:00
Parcialmente nuboso
Parcialmente nuboso
 Viento del varies
Viento: varies 4 km/h
Temperatura: 25°C
Rocío: 21°C
Humedad: 79%
Barómetro: 1019 hPa
Clouds: Parcialmente nuboso
Visibility: 10 km
Cloud details: Few Clouds 335 m
Parcialmente nuboso 457 m
2018/09/19 15:00 LEIB 191500Z VRB02KT 9999 FEW011 SCT015 25/21 Q1019 NOSIG
LEBL - Barcelona Airpor, Spain
Distance from station: NNO 225km
Actualización: 19/09/2018 17:00
Few Clouds
Few Clouds
 Viento del SSE
Viento: SSE 13 km/h
Temperatura: 26°C
Rocío: 21°C
Humedad: 74%
Barómetro: 1020 hPa
Clouds: Few Clouds
Visibility: 10 km
Cloud details: Few Clouds 610 m
2018/09/19 15:00 LEBL 191500Z 15007KT 110V190 9999 FEW020 26/21 Q1020 NOSIG
 
LEVC - Valencia (civ/Mi, Spain
Distance from station: NO 188km
Actualización: 19/09/2018 17:00
Few Clouds
Few Clouds
 Viento del ENE
Viento: ENE 13 km/h
Temperatura: 28°C
Indice Calor: 29°C
Rocío: 19°C
Humedad: 58%
Barómetro: 1020 hPa
Clouds: Few Clouds
Visibility: 10 km
Cloud details: Few Clouds 762 m
2018/09/19 15:00 LEVC 191500Z 07007KT 010V120 9999 FEW025 28/19 Q1020 NOSIG
LEGE - Gerona/Costa Bra, Spain
Distance from station: N 276km
Actualización: 19/09/2018 17:00
Parcialmente nuboso
Parcialmente nuboso
 Viento del S
Viento: S 13 km/h
Temperatura: 27°C
Indice Calor: 29°C
Rocío: 20°C
Humedad: 66%
Barómetro: 1019 hPa
Clouds: Parcialmente nuboso
Visibility: 10 km
Cloud details: Parcialmente nuboso 1524 m
2018/09/19 15:00 LEGE 191500Z 17007KT 140V210 9999 SCT050 27/20 Q1019
 
LEAL - Alicante/El Alte, Spain
Distance from station: OSO 344km
Actualización: 19/09/2018 17:00
Few Clouds
Few Clouds
 Viento del SE
Viento: SE 13 km/h
Temperatura: 28°C
Indice Calor: 30°C
Rocío: 21°C
Humedad: 66%
Barómetro: 1019 hPa
Clouds: Few Clouds
Visibility: 10 km
Cloud details: Few Clouds 914 m
2018/09/19 15:00 LEAL 191500Z 13007KT 090V190 9999 FEW030 28/21 Q1019 NOSIG
LEAM - Almeria Airport, Spain
Distance from station: SSO 56km
Actualización: 19/09/2018 17:00
Muy nuboso
Muy nuboso
 Viento del SSO
Viento: SSO 6 km/h
Temperatura: 26°C
Rocío: 23°C
Humedad: 84%
Barómetro: 1019 hPa
Clouds: Muy nuboso
Visibility: 10 km
Cloud details: Few Clouds 305 m
Parcialmente nuboso 914 m
Muy nuboso 1219 m
2018/09/19 15:00 LEAM 191500Z 21003KT 9999 FEW010 SCT030 BKN040 26/23 Q1019
 
LEZG - Zaragoza (mil/Ci, Spain
Distance from station: NO 431km
Actualización: 19/09/2018 17:00
Few Clouds
Few Clouds
 Viento del NE
Viento: NE 7 km/h
Temperatura: 31°C
Rocío: 13°C
Humedad: 33%
Barómetro: 1019 hPa
Clouds: Few Clouds
Visibility: 10 km
Cloud details: Few Clouds 1524 m
2018/09/19 15:00 LEZG 191500Z 05004KT 340V120 9999 FEW050 31/13 Q1019
LEMD - Madrid/Barajas, Spain
Distance from station: ONO 234km
Actualización: 19/09/2018 17:00
Parcialmente nuboso
Parcialmente nuboso
 Viento del O
Viento: O 6 km/h
Temperatura: 32°C
Rocío: 9°C
Humedad: 24%
Barómetro: 1020 hPa
Clouds: Parcialmente nuboso
Visibility: 10 km
Cloud details: Few Clouds 1981 m
Parcialmente nuboso 2286 m
2018/09/19 15:00 LEMD 191500Z 27003KT 9999 FEW065TCU SCT075 32/09 Q1020 NOSIG
 
LEGR - Granada Airport, Spain
Distance from station: OSO 62km
Actualización: 19/09/2018 17:00
Nearby showers, Parcialmente nuboso
Nearby showers, Parcialmente nuboso
 Viento del SSO
Viento: SSO 6 km/h
Temperatura: 32°C
Rocío: 12°C
Humedad: 29%
Barómetro: 1020 hPa
Resumen: Nearby Showers
Clouds: Parcialmente nuboso
Visibility: 10 km
Cloud details: Few Clouds 1067 m
Parcialmente nuboso 1372 m
2018/09/19 15:00 LEGR 191500Z 20003KT 160V300 9999 VCSH FEW035CB SCT045 32/12 Q1020
LEMG - Malaga (civ/Mil), Spain
Distance from station: OSO 227km
Actualización: 19/09/2018 17:00
Few Clouds
Few Clouds
 Viento del SE
Viento: SE 19 km/h
Temperatura: 26°C
Rocío: 21°C
Humedad: 74%
Barómetro: 1019 hPa
Clouds: Few Clouds
Visibility: 10 km
Cloud details: Few Clouds 914 m
2018/09/19 15:00 LEMG 191500Z 13010KT 9999 FEW030 26/21 Q1019 NOSIG
 
LEZL - Sevilla (civ/Mil, Spain
Distance from station: S 318km
Actualización: 19/09/2018 17:00
Despejado
Despejado
 Viento del ENE
Viento: ENE 4 km/h
Temperatura: 34°C
Rocío: 14°C
Humedad: 30%
Barómetro: 1017 hPa
Resumen: Despejado
Visibility: greater than 10 km
2018/09/19 15:00 LEZL 191500Z 06002KT CAVOK 34/14 Q1017 NOSIG
LEVT - Vitoria, Spain
Distance from station: NO 226km
Actualización: 19/09/2018 17:00
Parcialmente nuboso
Parcialmente nuboso
 Viento del NNE
Viento: NNE 28 km/h
Temperatura: 26°C
Rocío: 18°C
Humedad: 61%
Barómetro: 1021 hPa
Clouds: Parcialmente nuboso
Visibility: 10 km
Cloud details: Few Clouds 366 m
Parcialmente nuboso 1829 m
2018/09/19 15:00 LEVT 191500Z 02015KT 9999 FEW012 SCT060 26/18 Q1021
 
LEBB - Bilbao/Sondica, Spain
Distance from station: NNO 235km
Actualización: 19/09/2018 17:00
Muy nuboso
Muy nuboso
 Viento del ONO
Viento: ONO 13 km/h
Temperatura: 23°C
Rocío: 20°C
Humedad: 83%
Barómetro: 1021 hPa
Clouds: Muy nuboso
Visibility: 8 km
Cloud details: Few Clouds 335 m
Muy nuboso 914 m
2018/09/19 15:00 LEBB 191500Z 29007KT 260V330 8000 FEW011 BKN030 23/20 Q1021 NOSIG
LESO - San Sebastian/Fu, Spain
Distance from station: N 231km
Actualización: 19/09/2018 17:00
Few Clouds
Few Clouds
 Viento del N
Viento: N 11 km/h
Temperatura: 23°C
Rocío: 20°C
Humedad: 83%
Barómetro: 1021 hPa
Clouds: Few Clouds
Visibility: 10 km
Cloud details: Few Clouds 762 m
2018/09/19 15:00 LESO 191500Z 01006KT 310V050 9999 FEW025 23/20 Q1021
 
LEVD - Valladolid(Mil/C, Spain
Distance from station: ONO 239km
Actualización: 19/09/2018 17:00
Despejado
Despejado
 Viento del SO
Viento: SO 6 km/h
Temperatura: 28°C
Rocío: 8°C
Humedad: 28%
Barómetro: 1022 hPa
Resumen: Despejado
Visibility: greater than 10 km
2018/09/19 15:00 LEVD 191500Z 22003KT CAVOK 28/08 Q1022
LESA - Salamanca (civ/M, Spain
Distance from station: ONO 349km
Actualización: 19/09/2018 17:00
Few Clouds
Few Clouds
 Viento del NNO
Viento: NNO 7 km/h
Temperatura: 29°C
Rocío: 10°C
Humedad: 31%
Barómetro: 1022 hPa
Clouds: Few Clouds
Visibility: 10 km
Cloud details: Few Clouds 1280 m
2018/09/19 15:00 LESA 191500Z 33004KT 260V040 9999 FEW042 29/10 Q1022
 
LEXJ - Santander/Paraya, Spain
Distance from station: NNO 247km
Actualización: 19/09/2018 17:00
Muy nuboso
Muy nuboso
 Viento del O
Viento: O 13 km/h
Temperatura: 22°C
Rocío: 19°C
Humedad: 83%
Barómetro: 1021 hPa
Clouds: Muy nuboso
Visibility: 10 km
Cloud details: Few Clouds 549 m
Muy nuboso 975 m
2018/09/19 15:00 LEXJ 191500Z 27007KT 9999 FEW018 BKN032 22/19 Q1021
LEAS - Asturias/Aviles, Spain
Distance from station: NO 214km
Actualización: 19/09/2018 17:00
Despejado
Despejado
 Viento del varies
Viento: varies 4 km/h
Temperatura: 22°C
Rocío: 14°C
Humedad: 61%
Barómetro: 1022 hPa
Resumen: Despejado
Visibility: greater than 10 km
2018/09/19 15:00 LEAS 191500Z VRB02KT CAVOK 22/14 Q1022 NOSIG
 
LECO - La Coruna/Alvedr, Spain
Distance from station: ONO 222km
Actualización: 19/09/2018 17:00
Few Clouds
Few Clouds
 Viento del NNE
Viento: NNE 13 km/h
Temperatura: 23°C
Rocío: 18°C
Humedad: 74%
Barómetro: 1021 hPa
Clouds: Few Clouds
Visibility: 10 km
Cloud details: Few Clouds 1219 m
2018/09/19 15:00 LECO 191500Z 03007KT 340V070 9999 FEW040 23/18 Q1021 NOSIG
LEVX - Vigo/Peinador, Spain
Distance from station: O 214km
Actualización: 19/09/2018 17:00
Despejado
Despejado
 Viento del OSO
Viento: OSO 17 km/h
Temperatura: 23°C
Rocío: 15°C
Humedad: 61%
Barómetro: 1022 hPa
Resumen: Despejado
Visibility: greater than 10 km
2018/09/19 15:00 LEVX 191500Z 25009KT 200V300 CAVOK 23/15 Q1022 NOSIG